sensor_id;sensor_type;location;lat;lon;timestamp;P1;durP1;ratioP1;P2;durP2;ratioP2
11414;SDS011;5763;42.714;23.244;2022-10-16T00:00:36;5.18;;;4.25;;
11414;SDS011;5763;42.714;23.244;2022-10-16T00:03:04;5.45;;;4.35;;
11414;SDS011;5763;42.714;23.244;2022-10-16T00:05:32;4.60;;;4.20;;
11414;SDS011;5763;42.714;23.244;2022-10-16T00:07:59;5.25;;;3.78;;
11414;SDS011;5763;42.714;23.244;2022-10-16T00:10:25;6.32;;;4.00;;
11414;SDS011;5763;42.714;23.244;2022-10-16T00:12:54;5.35;;;4.25;;
11414;SDS011;5763;42.714;23.244;2022-10-16T00:15:20;5.53;;;4.18;;
11414;SDS011;5763;42.714;23.244;2022-10-16T00:17:47;5.53;;;4.70;;
11414;SDS011;5763;42.714;23.244;2022-10-16T00:20:14;5.47;;;4.43;;
11414;SDS011;5763;42.714;23.244;2022-10-16T00:22:41;6.35;;;4.47;;
11414;SDS011;5763;42.714;23.244;2022-10-16T00:25:07;6.10;;;4.07;;
11414;SDS011;5763;42.714;23.244;2022-10-16T00:27:34;5.95;;;4.30;;
11414;SDS011;5763;42.714;23.244;2022-10-16T00:30:03;6.85;;;4.80;;
11414;SDS011;5763;42.714;23.244;2022-10-16T00:32:30;6.10;;;4.32;;
11414;SDS011;5763;42.714;23.244;2022-10-16T00:34:57;5.00;;;4.50;;
11414;SDS011;5763;42.714;23.244;2022-10-16T00:37:24;6.15;;;4.68;;
11414;SDS011;5763;42.714;23.244;2022-10-16T00:39:51;5.72;;;4.97;;
11414;SDS011;5763;42.714;23.244;2022-10-16T00:42:18;7.10;;;4.65;;
11414;SDS011;5763;42.714;23.244;2022-10-16T00:44:46;4.82;;;4.10;;
11414;SDS011;5763;42.714;23.244;2022-10-16T00:47:19;6.38;;;4.97;;
11414;SDS011;5763;42.714;23.244;2022-10-16T00:49:51;5.38;;;4.53;;
11414;SDS011;5763;42.714;23.244;2022-10-16T00:52:22;6.47;;;4.70;;
11414;SDS011;5763;42.714;23.244;2022-10-16T00:54:49;9.10;;;4.50;;
11414;SDS011;5763;42.714;23.244;2022-10-16T00:57:16;5.28;;;4.43;;
11414;SDS011;5763;42.714;23.244;2022-10-16T00:59:43;5.57;;;4.45;;
11414;SDS011;5763;42.714;23.244;2022-10-16T01:02:11;5.72;;;4.53;;
11414;SDS011;5763;42.714;23.244;2022-10-16T01:04:41;6.03;;;4.72;;
11414;SDS011;5763;42.714;23.244;2022-10-16T01:07:12;7.88;;;4.70;;
11414;SDS011;5763;42.714;23.244;2022-10-16T01:09:46;6.57;;;5.25;;
11414;SDS011;5763;42.714;23.244;2022-10-16T01:12:23;6.03;;;4.65;;
11414;SDS011;5763;42.714;23.244;2022-10-16T01:14:56;6.70;;;5.00;;
11414;SDS011;5763;42.714;23.244;2022-10-16T01:17:28;6.05;;;4.72;;
11414;SDS011;5763;42.714;23.244;2022-10-16T01:20:04;6.05;;;4.47;;
11414;SDS011;5763;42.714;23.244;2022-10-16T01:22:43;5.70;;;4.85;;
11414;SDS011;5763;42.714;23.244;2022-10-16T01:25:25;5.80;;;4.80;;
11414;SDS011;5763;42.714;23.244;2022-10-16T01:28:07;6.40;;;4.97;;
11414;SDS011;5763;42.714;23.244;2022-10-16T01:30:39;6.63;;;4.80;;
11414;SDS011;5763;42.714;23.244;2022-10-16T01:33:09;7.20;;;4.38;;
11414;SDS011;5763;42.714;23.244;2022-10-16T01:35:42;7.15;;;4.75;;
11414;SDS011;5763;42.714;23.244;2022-10-16T01:38:14;6.47;;;4.70;;
11414;SDS011;5763;42.714;23.244;2022-10-16T01:40:45;6.78;;;4.72;;
11414;SDS011;5763;42.714;23.244;2022-10-16T01:43:20;5.45;;;4.53;;
11414;SDS011;5763;42.714;23.244;2022-10-16T01:45:51;4.90;;;4.40;;
11414;SDS011;5763;42.714;23.244;2022-10-16T01:48:19;6.80;;;4.82;;
11414;SDS011;5763;42.714;23.244;2022-10-16T01:50:54;6.00;;;4.40;;
11414;SDS011;5763;42.714;23.244;2022-10-16T01:53:24;4.60;;;4.18;;
11414;SDS011;5763;42.714;23.244;2022-10-16T01:55:52;5.70;;;4.38;;
11414;SDS011;5763;42.714;23.244;2022-10-16T01:58:23;6.03;;;4.50;;
11414;SDS011;5763;42.714;23.244;2022-10-16T02:00:51;5.40;;;4.18;;
11414;SDS011;5763;42.714;23.244;2022-10-16T02:03:20;5.40;;;3.88;;
11414;SDS011;5763;42.714;23.244;2022-10-16T02:05:49;6.60;;;4.82;;
11414;SDS011;5763;42.714;23.244;2022-10-16T02:08:18;5.13;;;4.38;;
11414;SDS011;5763;42.714;23.244;2022-10-16T02:10:45;5.28;;;4.50;;
11414;SDS011;5763;42.714;23.244;2022-10-16T02:13:13;4.93;;;4.25;;
11414;SDS011;5763;42.714;23.244;2022-10-16T02:15:45;5.68;;;4.30;;
11414;SDS011;5763;42.714;23.244;2022-10-16T02:18:12;5.60;;;4.22;;
11414;SDS011;5763;42.714;23.244;2022-10-16T02:20:40;5.57;;;4.32;;
11414;SDS011;5763;42.714;23.244;2022-10-16T02:23:15;5.72;;;4.50;;
11414;SDS011;5763;42.714;23.244;2022-10-16T02:25:47;6.78;;;4.70;;
11414;SDS011;5763;42.714;23.244;2022-10-16T02:28:18;5.78;;;4.10;;
11414;SDS011;5763;42.714;23.244;2022-10-16T02:30:52;6.93;;;4.47;;
11414;SDS011;5763;42.714;23.244;2022-10-16T02:33:24;7.22;;;4.70;;
11414;SDS011;5763;42.714;23.244;2022-10-16T02:35:53;5.30;;;4.40;;
11414;SDS011;5763;42.714;23.244;2022-10-16T02:38:21;6.85;;;3.83;;
11414;SDS011;5763;42.714;23.244;2022-10-16T02:40:50;5.38;;;4.88;;
11414;SDS011;5763;42.714;23.244;2022-10-16T02:43:17;5.32;;;4.18;;
11414;SDS011;5763;42.714;23.244;2022-10-16T02:45:45;6.00;;;4.22;;
11414;SDS011;5763;42.714;23.244;2022-10-16T02:48:13;5.43;;;3.78;;
11414;SDS011;5763;42.714;23.244;2022-10-16T02:50:40;7.03;;;4.32;;
11414;SDS011;5763;42.714;23.244;2022-10-16T02:53:07;7.57;;;4.32;;
11414;SDS011;5763;42.714;23.244;2022-10-16T02:55:34;5.72;;;4.00;;
11414;SDS011;5763;42.714;23.244;2022-10-16T02:58:00;5.07;;;4.28;;
11414;SDS011;5763;42.714;23.244;2022-10-16T03:00:27;6.70;;;4.70;;
11414;SDS011;5763;42.714;23.244;2022-10-16T03:02:54;7.30;;;4.70;;
11414;SDS011;5763;42.714;23.244;2022-10-16T03:05:22;4.43;;;4.03;;
11414;SDS011;5763;42.714;23.244;2022-10-16T03:07:49;7.70;;;4.70;;
11414;SDS011;5763;42.714;23.244;2022-10-16T03:10:17;4.63;;;4.22;;
11414;SDS011;5763;42.714;23.244;2022-10-16T03:12:44;4.75;;;3.88;;
11414;SDS011;5763;42.714;23.244;2022-10-16T03:15:11;4.25;;;3.78;;
11414;SDS011;5763;42.714;23.244;2022-10-16T03:17:37;4.28;;;3.88;;
11414;SDS011;5763;42.714;23.244;2022-10-16T03:20:04;4.75;;;4.03;;
11414;SDS011;5763;42.714;23.244;2022-10-16T03:22:33;5.07;;;4.07;;
11414;SDS011;5763;42.714;23.244;2022-10-16T03:25:00;4.70;;;4.18;;
11414;SDS011;5763;42.714;23.244;2022-10-16T03:27:27;6.20;;;4.63;;
11414;SDS011;5763;42.714;23.244;2022-10-16T03:29:54;5.32;;;4.38;;
11414;SDS011;5763;42.714;23.244;2022-10-16T03:32:21;6.00;;;4.35;;
11414;SDS011;5763;42.714;23.244;2022-10-16T03:34:49;5.88;;;4.80;;
11414;SDS011;5763;42.714;23.244;2022-10-16T03:37:18;4.70;;;4.22;;
11414;SDS011;5763;42.714;23.244;2022-10-16T03:39:46;6.78;;;4.65;;
11414;SDS011;5763;42.714;23.244;2022-10-16T03:42:12;6.38;;;3.95;;
11414;SDS011;5763;42.714;23.244;2022-10-16T03:44:39;6.53;;;4.35;;
11414;SDS011;5763;42.714;23.244;2022-10-16T03:47:06;5.72;;;4.60;;
11414;SDS011;5763;42.714;23.244;2022-10-16T03:49:33;6.75;;;4.80;;
11414;SDS011;5763;42.714;23.244;2022-10-16T03:52:00;5.22;;;4.70;;
11414;SDS011;5763;42.714;23.244;2022-10-16T03:54:26;5.85;;;4.88;;
11414;SDS011;5763;42.714;23.244;2022-10-16T03:56:54;6.85;;;5.55;;
11414;SDS011;5763;42.714;23.244;2022-10-16T03:59:21;8.15;;;5.15;;
11414;SDS011;5763;42.714;23.244;2022-10-16T04:01:48;8.30;;;5.22;;
11414;SDS011;5763;42.714;23.244;2022-10-16T04:04:15;8.50;;;4.65;;
11414;SDS011;5763;42.714;23.244;2022-10-16T04:06:41;7.25;;;5.60;;
11414;SDS011;5763;42.714;23.244;2022-10-16T04:09:08;7.25;;;4.90;;
11414;SDS011;5763;42.714;23.244;2022-10-16T04:11:35;6.63;;;5.32;;
11414;SDS011;5763;42.714;23.244;2022-10-16T04:14:03;5.60;;;4.85;;
11414;SDS011;5763;42.714;23.244;2022-10-16T04:16:30;6.95;;;5.30;;
11414;SDS011;5763;42.714;23.244;2022-10-16T04:18:56;11.90;;;5.72;;
11414;SDS011;5763;42.714;23.244;2022-10-16T04:21:23;6.88;;;5.40;;
11414;SDS011;5763;42.714;23.244;2022-10-16T04:23:50;6.32;;;5.10;;
11414;SDS011;5763;42.714;23.244;2022-10-16T04:26:17;7.93;;;5.20;;
11414;SDS011;5763;42.714;23.244;2022-10-16T04:28:44;8.02;;;5.25;;
11414;SDS011;5763;42.714;23.244;2022-10-16T04:31:12;7.88;;;5.70;;
11414;SDS011;5763;42.714;23.244;2022-10-16T04:33:38;9.90;;;6.07;;
11414;SDS011;5763;42.714;23.244;2022-10-16T04:36:08;8.15;;;5.68;;
11414;SDS011;5763;42.714;23.244;2022-10-16T04:38:35;5.35;;;4.68;;
11414;SDS011;5763;42.714;23.244;2022-10-16T04:41:02;7.65;;;5.13;;
11414;SDS011;5763;42.714;23.244;2022-10-16T04:43:29;6.97;;;5.45;;
11414;SDS011;5763;42.714;23.244;2022-10-16T04:45:56;7.38;;;5.10;;
11414;SDS011;5763;42.714;23.244;2022-10-16T04:48:24;6.28;;;5.47;;
11414;SDS011;5763;42.714;23.244;2022-10-16T04:50:51;7.97;;;5.45;;
11414;SDS011;5763;42.714;23.244;2022-10-16T04:53:18;5.90;;;5.30;;
11414;SDS011;5763;42.714;23.244;2022-10-16T04:55:45;9.80;;;6.22;;
11414;SDS011;5763;42.714;23.244;2022-10-16T04:58:11;6.38;;;4.97;;
11414;SDS011;5763;42.714;23.244;2022-10-16T05:00:38;6.22;;;5.13;;
11414;SDS011;5763;42.714;23.244;2022-10-16T05:03:05;8.18;;;6.60;;
11414;SDS011;5763;42.714;23.244;2022-10-16T05:05:35;7.82;;;5.90;;
11414;SDS011;5763;42.714;23.244;2022-10-16T05:08:02;7.25;;;5.63;;
11414;SDS011;5763;42.714;23.244;2022-10-16T05:10:29;7.28;;;5.10;;
11414;SDS011;5763;42.714;23.244;2022-10-16T05:12:56;7.32;;;5.50;;
11414;SDS011;5763;42.714;23.244;2022-10-16T05:15:23;6.20;;;5.22;;
11414;SDS011;5763;42.714;23.244;2022-10-16T05:17:52;7.18;;;5.63;;
11414;SDS011;5763;42.714;23.244;2022-10-16T05:20:19;6.60;;;5.10;;
11414;SDS011;5763;42.714;23.244;2022-10-16T05:22:48;5.93;;;4.97;;
11414;SDS011;5763;42.714;23.244;2022-10-16T05:25:15;7.38;;;4.90;;
11414;SDS011;5763;42.714;23.244;2022-10-16T05:27:42;6.45;;;5.20;;
11414;SDS011;5763;42.714;23.244;2022-10-16T05:30:09;6.40;;;5.05;;
11414;SDS011;5763;42.714;23.244;2022-10-16T05:32:36;6.38;;;5.78;;
11414;SDS011;5763;42.714;23.244;2022-10-16T05:35:03;6.53;;;5.35;;
11414;SDS011;5763;42.714;23.244;2022-10-16T05:37:30;6.93;;;5.88;;
11414;SDS011;5763;42.714;23.244;2022-10-16T05:39:58;5.50;;;5.00;;
11414;SDS011;5763;42.714;23.244;2022-10-16T05:42:25;5.47;;;4.95;;
11414;SDS011;5763;42.714;23.244;2022-10-16T05:44:52;9.07;;;5.50;;
11414;SDS011;5763;42.714;23.244;2022-10-16T05:47:19;7.93;;;5.25;;
11414;SDS011;5763;42.714;23.244;2022-10-16T05:49:46;6.20;;;5.38;;
11414;SDS011;5763;42.714;23.244;2022-10-16T05:52:12;5.85;;;4.80;;
11414;SDS011;5763;42.714;23.244;2022-10-16T05:54:39;7.78;;;5.43;;
11414;SDS011;5763;42.714;23.244;2022-10-16T05:57:10;8.77;;;5.68;;
11414;SDS011;5763;42.714;23.244;2022-10-16T05:59:37;8.23;;;5.72;;
11414;SDS011;5763;42.714;23.244;2022-10-16T06:02:05;6.15;;;5.55;;
11414;SDS011;5763;42.714;23.244;2022-10-16T06:04:32;7.43;;;5.32;;
11414;SDS011;5763;42.714;23.244;2022-10-16T06:06:59;6.40;;;5.32;;
11414;SDS011;5763;42.714;23.244;2022-10-16T06:09:26;6.15;;;5.40;;
11414;SDS011;5763;42.714;23.244;2022-10-16T06:11:53;6.95;;;5.60;;
11414;SDS011;5763;42.714;23.244;2022-10-16T06:14:25;6.75;;;5.50;;
11414;SDS011;5763;42.714;23.244;2022-10-16T06:16:53;6.53;;;5.82;;
11414;SDS011;5763;42.714;23.244;2022-10-16T06:19:20;9.27;;;6.07;;
11414;SDS011;5763;42.714;23.244;2022-10-16T06:21:48;8.63;;;5.97;;
11414;SDS011;5763;42.714;23.244;2022-10-16T06:24:14;8.85;;;6.95;;
11414;SDS011;5763;42.714;23.244;2022-10-16T06:26:41;13.25;;;8.93;;
11414;SDS011;5763;42.714;23.244;2022-10-16T06:29:08;13.55;;;10.35;;
11414;SDS011;5763;42.714;23.244;2022-10-16T06:31:36;12.68;;;9.95;;
11414;SDS011;5763;42.714;23.244;2022-10-16T06:34:03;12.77;;;10.13;;
11414;SDS011;5763;42.714;23.244;2022-10-16T06:36:34;11.63;;;8.55;;
11414;SDS011;5763;42.714;23.244;2022-10-16T06:39:01;11.48;;;8.23;;
11414;SDS011;5763;42.714;23.244;2022-10-16T06:41:27;10.07;;;8.05;;
11414;SDS011;5763;42.714;23.244;2022-10-16T06:43:54;8.98;;;7.47;;
11414;SDS011;5763;42.714;23.244;2022-10-16T06:46:22;10.00;;;7.65;;
11414;SDS011;5763;42.714;23.244;2022-10-16T06:48:51;9.63;;;7.10;;
11414;SDS011;5763;42.714;23.244;2022-10-16T06:51:19;9.63;;;7.85;;
11414;SDS011;5763;42.714;23.244;2022-10-16T06:53:48;9.32;;;7.20;;
11414;SDS011;5763;42.714;23.244;2022-10-16T06:56:17;9.85;;;7.78;;
11414;SDS011;5763;42.714;23.244;2022-10-16T06:58:45;10.38;;;7.75;;
11414;SDS011;5763;42.714;23.244;2022-10-16T07:01:13;11.52;;;8.20;;
11414;SDS011;5763;42.714;23.244;2022-10-16T07:03:41;11.32;;;8.50;;
11414;SDS011;5763;42.714;23.244;2022-10-16T07:06:11;9.00;;;8.10;;
11414;SDS011;5763;42.714;23.244;2022-10-16T07:08:40;13.23;;;8.18;;
11414;SDS011;5763;42.714;23.244;2022-10-16T07:11:09;9.05;;;8.07;;
11414;SDS011;5763;42.714;23.244;2022-10-16T07:13:38;10.35;;;7.68;;
11414;SDS011;5763;42.714;23.244;2022-10-16T07:16:06;10.48;;;8.73;;
11414;SDS011;5763;42.714;23.244;2022-10-16T07:18:34;10.70;;;8.63;;
11414;SDS011;5763;42.714;23.244;2022-10-16T07:21:05;11.40;;;8.23;;
11414;SDS011;5763;42.714;23.244;2022-10-16T07:23:34;10.23;;;8.00;;
11414;SDS011;5763;42.714;23.244;2022-10-16T07:26:01;10.38;;;8.68;;
11414;SDS011;5763;42.714;23.244;2022-10-16T07:28:28;13.65;;;8.00;;
11414;SDS011;5763;42.714;23.244;2022-10-16T07:30:55;9.43;;;8.20;;
11414;SDS011;5763;42.714;23.244;2022-10-16T07:33:26;9.93;;;8.25;;
11414;SDS011;5763;42.714;23.244;2022-10-16T07:35:53;11.68;;;8.27;;
11414;SDS011;5763;42.714;23.244;2022-10-16T07:38:21;10.35;;;8.85;;
11414;SDS011;5763;42.714;23.244;2022-10-16T07:40:56;12.82;;;8.20;;
11414;SDS011;5763;42.714;23.244;2022-10-16T07:43:24;11.00;;;8.13;;
11414;SDS011;5763;42.714;23.244;2022-10-16T07:45:51;9.70;;;8.23;;
11414;SDS011;5763;42.714;23.244;2022-10-16T07:48:18;10.77;;;8.45;;
11414;SDS011;5763;42.714;23.244;2022-10-16T07:50:46;11.30;;;8.10;;
11414;SDS011;5763;42.714;23.244;2022-10-16T07:53:12;8.70;;;7.80;;
11414;SDS011;5763;42.714;23.244;2022-10-16T07:55:39;9.30;;;8.27;;
11414;SDS011;5763;42.714;23.244;2022-10-16T07:58:08;10.95;;;7.93;;
11414;SDS011;5763;42.714;23.244;2022-10-16T08:00:35;8.93;;;8.02;;
11414;SDS011;5763;42.714;23.244;2022-10-16T08:03:03;9.70;;;8.05;;
11414;SDS011;5763;42.714;23.244;2022-10-16T08:05:31;8.70;;;7.80;;
11414;SDS011;5763;42.714;23.244;2022-10-16T08:07:59;10.52;;;7.57;;
11414;SDS011;5763;42.714;23.244;2022-10-16T08:10:26;9.43;;;7.22;;
11414;SDS011;5763;42.714;23.244;2022-10-16T08:12:54;8.15;;;6.68;;
11414;SDS011;5763;42.714;23.244;2022-10-16T08:15:22;8.40;;;7.13;;
11414;SDS011;5763;42.714;23.244;2022-10-16T08:17:57;7.38;;;6.63;;
11414;SDS011;5763;42.714;23.244;2022-10-16T08:20:24;7.80;;;6.70;;
11414;SDS011;5763;42.714;23.244;2022-10-16T08:22:52;6.88;;;6.07;;
11414;SDS011;5763;42.714;23.244;2022-10-16T08:25:19;7.82;;;5.57;;
11414;SDS011;5763;42.714;23.244;2022-10-16T08:27:46;7.72;;;6.22;;
11414;SDS011;5763;42.714;23.244;2022-10-16T08:30:13;8.25;;;6.32;;
11414;SDS011;5763;42.714;23.244;2022-10-16T08:32:42;7.57;;;5.53;;
11414;SDS011;5763;42.714;23.244;2022-10-16T08:35:09;7.75;;;5.43;;
11414;SDS011;5763;42.714;23.244;2022-10-16T08:37:36;9.63;;;5.72;;
11414;SDS011;5763;42.714;23.244;2022-10-16T08:40:04;13.77;;;7.65;;
11414;SDS011;5763;42.714;23.244;2022-10-16T08:42:37;12.30;;;7.95;;
11414;SDS011;5763;42.714;23.244;2022-10-16T08:45:21;10.70;;;8.77;;
11414;SDS011;5763;42.714;23.244;2022-10-16T08:48:05;9.95;;;7.57;;
11414;SDS011;5763;42.714;23.244;2022-10-16T08:50:41;11.95;;;8.82;;
11414;SDS011;5763;42.714;23.244;2022-10-16T08:53:10;12.90;;;9.20;;
11414;SDS011;5763;42.714;23.244;2022-10-16T08:55:43;13.98;;;8.07;;
11414;SDS011;5763;42.714;23.244;2022-10-16T08:58:13;12.65;;;8.32;;
11414;SDS011;5763;42.714;23.244;2022-10-16T09:00:42;9.00;;;6.95;;
11414;SDS011;5763;42.714;23.244;2022-10-16T09:03:16;7.35;;;4.97;;
11414;SDS011;5763;42.714;23.244;2022-10-16T09:06:07;9.25;;;5.07;;
11414;SDS011;5763;42.714;23.244;2022-10-16T09:08:46;8.02;;;6.80;;
11414;SDS011;5763;42.714;23.244;2022-10-16T09:11:26;7.18;;;5.25;;
11414;SDS011;5763;42.714;23.244;2022-10-16T09:14:07;4.28;;;3.38;;
11414;SDS011;5763;42.714;23.244;2022-10-16T09:16:46;3.70;;;3.40;;
11414;SDS011;5763;42.714;23.244;2022-10-16T09:19:20;5.28;;;3.00;;
11414;SDS011;5763;42.714;23.244;2022-10-16T09:21:54;3.90;;;3.60;;
11414;SDS011;5763;42.714;23.244;2022-10-16T09:24:24;4.10;;;3.30;;
11414;SDS011;5763;42.714;23.244;2022-10-16T09:26:52;6.25;;;4.25;;
11414;SDS011;5763;42.714;23.244;2022-10-16T09:29:19;4.07;;;3.40;;
11414;SDS011;5763;42.714;23.244;2022-10-16T09:31:50;3.80;;;3.05;;
11414;SDS011;5763;42.714;23.244;2022-10-16T09:34:24;4.35;;;3.83;;
11414;SDS011;5763;42.714;23.244;2022-10-16T09:36:58;4.65;;;3.10;;
11414;SDS011;5763;42.714;23.244;2022-10-16T09:39:27;3.55;;;2.97;;
11414;SDS011;5763;42.714;23.244;2022-10-16T09:41:54;4.22;;;3.63;;
11414;SDS011;5763;42.714;23.244;2022-10-16T09:44:23;4.30;;;3.90;;
11414;SDS011;5763;42.714;23.244;2022-10-16T09:47:00;4.43;;;3.33;;
11414;SDS011;5763;42.714;23.244;2022-10-16T09:49:29;5.93;;;4.70;;
11414;SDS011;5763;42.714;23.244;2022-10-16T09:52:06;4.18;;;3.78;;
11414;SDS011;5763;42.714;23.244;2022-10-16T09:54:48;5.80;;;3.80;;
11414;SDS011;5763;42.714;23.244;2022-10-16T09:57:15;5.28;;;4.70;;
11414;SDS011;5763;42.714;23.244;2022-10-16T09:59:45;4.20;;;3.75;;
11414;SDS011;5763;42.714;23.244;2022-10-16T10:02:14;4.30;;;3.45;;
11414;SDS011;5763;42.714;23.244;2022-10-16T10:04:46;3.55;;;3.17;;
11414;SDS011;5763;42.714;23.244;2022-10-16T10:07:17;5.88;;;3.58;;
11414;SDS011;5763;42.714;23.244;2022-10-16T10:09:46;3.70;;;3.10;;
11414;SDS011;5763;42.714;23.244;2022-10-16T10:12:17;3.47;;;2.53;;
11414;SDS011;5763;42.714;23.244;2022-10-16T10:14:46;3.08;;;2.72;;
11414;SDS011;5763;42.714;23.244;2022-10-16T10:17:16;3.38;;;2.83;;
11414;SDS011;5763;42.714;23.244;2022-10-16T10:19:48;3.05;;;2.75;;
11414;SDS011;5763;42.714;23.244;2022-10-16T10:22:22;4.00;;;3.00;;
11414;SDS011;5763;42.714;23.244;2022-10-16T10:24:54;3.30;;;3.00;;
11414;SDS011;5763;42.714;23.244;2022-10-16T10:27:30;3.13;;;2.80;;
11414;SDS011;5763;42.714;23.244;2022-10-16T10:30:03;4.82;;;3.10;;
11414;SDS011;5763;42.714;23.244;2022-10-16T10:32:38;3.67;;;3.13;;
11414;SDS011;5763;42.714;23.244;2022-10-16T10:35:15;3.65;;;3.08;;
11414;SDS011;5763;42.714;23.244;2022-10-16T10:37:55;4.78;;;3.10;;
11414;SDS011;5763;42.714;23.244;2022-10-16T10:40:38;3.63;;;3.30;;
11414;SDS011;5763;42.714;23.244;2022-10-16T10:43:14;4.00;;;3.00;;
11414;SDS011;5763;42.714;23.244;2022-10-16T10:45:51;5.53;;;3.25;;
11414;SDS011;5763;42.714;23.244;2022-10-16T10:51:18;4.50;;;3.08;;
11414;SDS011;5763;42.714;23.244;2022-10-16T10:53:52;5.22;;;3.15;;
11414;SDS011;5763;42.714;23.244;2022-10-16T10:56:34;6.72;;;3.13;;
11414;SDS011;5763;42.714;23.244;2022-10-16T10:59:25;4.75;;;3.40;;
11414;SDS011;5763;42.714;23.244;2022-10-16T11:02:05;3.58;;;3.00;;
11414;SDS011;5763;42.714;23.244;2022-10-16T11:07:38;3.88;;;2.88;;
11414;SDS011;5763;42.714;23.244;2022-10-16T11:10:12;3.38;;;3.08;;
11414;SDS011;5763;42.714;23.244;2022-10-16T11:12:44;7.55;;;3.53;;
11414;SDS011;5763;42.714;23.244;2022-10-16T11:15:16;3.88;;;2.97;;
11414;SDS011;5763;42.714;23.244;2022-10-16T11:17:47;3.47;;;3.17;;
11414;SDS011;5763;42.714;23.244;2022-10-16T11:20:19;5.10;;;3.33;;
11414;SDS011;5763;42.714;23.244;2022-10-16T11:22:51;4.53;;;3.33;;
11414;SDS011;5763;42.714;23.244;2022-10-16T11:25:22;3.80;;;2.92;;
11414;SDS011;5763;42.714;23.244;2022-10-16T11:27:54;6.22;;;3.33;;
11414;SDS011;5763;42.714;23.244;2022-10-16T11:30:28;3.42;;;3.00;;
11414;SDS011;5763;42.714;23.244;2022-10-16T11:33:01;3.65;;;3.00;;
11414;SDS011;5763;42.714;23.244;2022-10-16T11:35:38;4.13;;;2.83;;
11414;SDS011;5763;42.714;23.244;2022-10-16T11:38:12;3.83;;;3.33;;
11414;SDS011;5763;42.714;23.244;2022-10-16T11:40:47;5.00;;;3.00;;
11414;SDS011;5763;42.714;23.244;2022-10-16T11:43:20;3.38;;;3.00;;
11414;SDS011;5763;42.714;23.244;2022-10-16T11:45:51;3.38;;;2.60;;
11414;SDS011;5763;42.714;23.244;2022-10-16T11:48:23;5.38;;;2.95;;
11414;SDS011;5763;42.714;23.244;2022-10-16T11:50:56;3.58;;;2.53;;
11414;SDS011;5763;42.714;23.244;2022-10-16T11:53:32;4.90;;;3.22;;
11414;SDS011;5763;42.714;23.244;2022-10-16T11:56:11;3.05;;;2.75;;
11414;SDS011;5763;42.714;23.244;2022-10-16T11:58:41;3.22;;;2.80;;
11414;SDS011;5763;42.714;23.244;2022-10-16T12:01:17;3.00;;;2.72;;
11414;SDS011;5763;42.714;23.244;2022-10-16T12:03:49;3.10;;;2.80;;
11414;SDS011;5763;42.714;23.244;2022-10-16T12:06:30;3.20;;;2.90;;
11414;SDS011;5763;42.714;23.244;2022-10-16T12:09:01;3.22;;;2.92;;
11414;SDS011;5763;42.714;23.244;2022-10-16T12:11:34;5.50;;;2.50;;
11414;SDS011;5763;42.714;23.244;2022-10-16T12:14:05;3.13;;;2.83;;
11414;SDS011;5763;42.714;23.244;2022-10-16T12:16:34;3.10;;;2.75;;
11414;SDS011;5763;42.714;23.244;2022-10-16T12:19:11;2.65;;;2.45;;
11414;SDS011;5763;42.714;23.244;2022-10-16T12:21:40;3.78;;;2.25;;
11414;SDS011;5763;42.714;23.244;2022-10-16T12:24:19;4.32;;;2.72;;
11414;SDS011;5763;42.714;23.244;2022-10-16T12:26:48;2.72;;;2.22;;
11414;SDS011;5763;42.714;23.244;2022-10-16T12:29:21;3.85;;;2.50;;
11414;SDS011;5763;42.714;23.244;2022-10-16T12:31:59;3.28;;;2.30;;
11414;SDS011;5763;42.714;23.244;2022-10-16T12:34:28;4.15;;;2.60;;
11414;SDS011;5763;42.714;23.244;2022-10-16T12:37:07;4.13;;;2.67;;
11414;SDS011;5763;42.714;23.244;2022-10-16T12:39:39;4.05;;;2.83;;
11414;SDS011;5763;42.714;23.244;2022-10-16T12:42:18;4.30;;;3.00;;
11414;SDS011;5763;42.714;23.244;2022-10-16T12:44:47;4.03;;;2.42;;
11414;SDS011;5763;42.714;23.244;2022-10-16T12:47:19;3.60;;;2.72;;
11414;SDS011;5763;42.714;23.244;2022-10-16T12:49:48;4.22;;;2.80;;
11414;SDS011;5763;42.714;23.244;2022-10-16T12:52:26;3.65;;;2.88;;
11414;SDS011;5763;42.714;23.244;2022-10-16T12:54:59;4.88;;;2.67;;
11414;SDS011;5763;42.714;23.244;2022-10-16T12:57:30;2.97;;;2.50;;
11414;SDS011;5763;42.714;23.244;2022-10-16T13:00:10;2.70;;;2.40;;
11414;SDS011;5763;42.714;23.244;2022-10-16T13:05:52;2.75;;;2.47;;
11414;SDS011;5763;42.714;23.244;2022-10-16T13:08:35;4.25;;;2.85;;
11414;SDS011;5763;42.714;23.244;2022-10-16T13:11:17;3.25;;;2.35;;
11414;SDS011;5763;42.714;23.244;2022-10-16T13:13:53;3.28;;;2.40;;
11414;SDS011;5763;42.714;23.244;2022-10-16T13:16:35;2.70;;;2.50;;
11414;SDS011;5763;42.714;23.244;2022-10-16T13:19:20;3.55;;;2.90;;
11414;SDS011;5763;42.714;23.244;2022-10-16T13:21:55;4.30;;;2.78;;
11414;SDS011;5763;42.714;23.244;2022-10-16T13:24:34;3.03;;;2.70;;
11414;SDS011;5763;42.714;23.244;2022-10-16T13:27:18;4.05;;;2.88;;
11414;SDS011;5763;42.714;23.244;2022-10-16T13:29:59;3.42;;;2.30;;
11414;SDS011;5763;42.714;23.244;2022-10-16T13:32:28;2.35;;;2.13;;
11414;SDS011;5763;42.714;23.244;2022-10-16T13:34:55;4.43;;;2.72;;
11414;SDS011;5763;42.714;23.244;2022-10-16T13:37:23;3.00;;;2.70;;
11414;SDS011;5763;42.714;23.244;2022-10-16T13:39:50;3.03;;;2.70;;
11414;SDS011;5763;42.714;23.244;2022-10-16T13:42:21;2.53;;;2.13;;
11414;SDS011;5763;42.714;23.244;2022-10-16T13:44:51;2.55;;;2.20;;
11414;SDS011;5763;42.714;23.244;2022-10-16T13:47:20;3.05;;;2.42;;
11414;SDS011;5763;42.714;23.244;2022-10-16T13:49:58;2.97;;;2.67;;
11414;SDS011;5763;42.714;23.244;2022-10-16T13:52:25;3.65;;;2.33;;
11414;SDS011;5763;42.714;23.244;2022-10-16T13:54:52;3.55;;;2.72;;
11414;SDS011;5763;42.714;23.244;2022-10-16T13:57:21;3.65;;;2.97;;
11414;SDS011;5763;42.714;23.244;2022-10-16T13:59:49;2.65;;;2.30;;
11414;SDS011;5763;42.714;23.244;2022-10-16T14:02:18;5.80;;;2.80;;
11414;SDS011;5763;42.714;23.244;2022-10-16T14:04:48;5.07;;;3.63;;
11414;SDS011;5763;42.714;23.244;2022-10-16T14:07:18;3.03;;;2.72;;
11414;SDS011;5763;42.714;23.244;2022-10-16T14:09:49;3.53;;;2.60;;
11414;SDS011;5763;42.714;23.244;2022-10-16T14:12:17;4.07;;;2.22;;
11414;SDS011;5763;42.714;23.244;2022-10-16T14:14:46;2.45;;;2.20;;
11414;SDS011;5763;42.714;23.244;2022-10-16T14:17:18;2.20;;;2.00;;
11414;SDS011;5763;42.714;23.244;2022-10-16T14:19:48;2.63;;;2.40;;
11414;SDS011;5763;42.714;23.244;2022-10-16T14:22:23;2.55;;;2.28;;
11414;SDS011;5763;42.714;23.244;2022-10-16T14:24:55;3.28;;;2.40;;
11414;SDS011;5763;42.714;23.244;2022-10-16T14:27:28;4.03;;;2.40;;
11414;SDS011;5763;42.714;23.244;2022-10-16T14:30:13;5.15;;;2.35;;
11414;SDS011;5763;42.714;23.244;2022-10-16T14:32:52;3.45;;;2.20;;
11414;SDS011;5763;42.714;23.244;2022-10-16T14:35:24;3.88;;;2.15;;
11414;SDS011;5763;42.714;23.244;2022-10-16T14:37:52;3.30;;;2.22;;
11414;SDS011;5763;42.714;23.244;2022-10-16T14:40:20;2.47;;;2.20;;
11414;SDS011;5763;42.714;23.244;2022-10-16T14:42:50;3.13;;;2.20;;
11414;SDS011;5763;42.714;23.244;2022-10-16T14:45:20;2.70;;;2.13;;
11414;SDS011;5763;42.714;23.244;2022-10-16T14:47:49;2.40;;;2.20;;
11414;SDS011;5763;42.714;23.244;2022-10-16T14:50:18;2.40;;;2.20;;
11414;SDS011;5763;42.714;23.244;2022-10-16T14:52:45;3.80;;;2.35;;
11414;SDS011;5763;42.714;23.244;2022-10-16T14:55:12;3.70;;;2.53;;
11414;SDS011;5763;42.714;23.244;2022-10-16T14:57:40;4.70;;;1.98;;
11414;SDS011;5763;42.714;23.244;2022-10-16T15:00:10;5.28;;;2.20;;
11414;SDS011;5763;42.714;23.244;2022-10-16T15:02:43;3.22;;;2.33;;
11414;SDS011;5763;42.714;23.244;2022-10-16T15:05:12;2.97;;;2.17;;
11414;SDS011;5763;42.714;23.244;2022-10-16T15:07:41;4.95;;;2.25;;
11414;SDS011;5763;42.714;23.244;2022-10-16T15:10:08;3.10;;;2.40;;
11414;SDS011;5763;42.714;23.244;2022-10-16T15:12:35;3.70;;;2.60;;